Time;durP1;ratioP1;P1;durP2;ratioP2;P2;SDS_P1;SDS_P2;PMS_P1;PMS_P2;Temp;Humidity;BMP_temperature;BMP_pressure;BME280_temperature;BME280_humidity;BME280_pressure;Samples;Min_cycle;Max_cycle;Signal;HPM_P1;HPM_P2
2022/08/23 04:02:24;;;;;;;7.33;4.60;;;17.40;99.90;;;;;;5069897;23;20546;-63
2022/08/23 04:04:50;;;;;;;4.53;4.13;;;17.40;99.90;;;;;;4977462;28;20517;-63
2022/08/23 04:07:19;;;;;;;5.33;4.90;;;17.40;99.90;;;;;;4976749;28;20451;-62
2022/08/23 04:09:46;;;;;;;5.67;5.17;;;17.40;99.90;;;;;;4976267;28;20454;-63
2022/08/23 04:12:13;;;;;;;4.90;4.43;;;17.40;99.90;;;;;;4976338;28;20529;-62
2022/08/23 04:14:40;;;;;;;4.77;4.40;;;17.40;99.90;;;;;;4976483;28;20435;-63
2022/08/23 04:17:06;;;;;;;4.87;4.57;;;17.40;99.90;;;;;;4977107;28;20450;-62
2022/08/23 04:19:35;;;;;;;5.43;4.93;;;17.40;99.90;;;;;;4976281;28;20461;-63
2022/08/23 04:22:01;;;;;;;5.13;4.67;;;17.40;99.90;;;;;;4975816;28;20900;-62
2022/08/23 04:24:28;;;;;;;5.00;4.50;;;17.30;99.90;;;;;;4975885;28;20458;-64
2022/08/23 04:26:55;;;;;;;4.77;4.10;;;17.20;99.90;;;;;;4976236;28;20467;-63
2022/08/23 04:29:22;;;;;;;5.03;4.63;;;17.30;99.90;;;;;;4975852;28;20458;-62
2022/08/23 04:31:49;;;;;;;4.03;3.70;;;17.20;99.90;;;;;;4975879;28;20483;-63
2022/08/23 04:34:16;;;;;;;4.80;4.47;;;17.30;99.90;;;;;;4976213;28;20501;-63
2022/08/23 04:36:44;;;;;;;6.33;4.57;;;17.20;99.90;;;;;;4976363;28;20964;-62
2022/08/23 04:39:11;;;;;;;6.50;4.70;;;17.10;99.90;;;;;;4975773;28;20461;-62
2022/08/23 04:44:27;;;;;;;5.40;4.33;;;17.00;99.90;;;;;;4965449;28;20458;-63
2022/08/23 04:46:54;;;;;;;4.67;4.27;;;16.90;99.90;;;;;;4975548;28;20454;-63
2022/08/23 04:49:22;;;;;;;4.30;3.90;;;16.90;99.90;;;;;;4975560;28;20458;-62
2022/08/23 04:51:50;;;;;;;4.50;4.20;;;16.90;99.90;;;;;;4975454;28;20474;-63
2022/08/23 04:54:17;;;;;;;4.73;4.33;;;16.90;99.90;;;;;;4975332;28;20462;-62
2022/08/23 04:56:44;;;;;;;5.90;4.07;;;16.90;99.90;;;;;;4975635;28;20450;-62
2022/08/23 04:59:11;;;;;;;6.77;4.77;;;16.90;99.90;;;;;;4975506;28;20450;-63
2022/08/23 05:01:38;;;;;;;4.37;4.07;;;16.90;99.90;;;;;;4975050;28;20505;-63
2022/08/23 05:04:06;;;;;;;4.93;4.50;;;16.90;99.90;;;;;;4975479;28;20454;-63
2022/08/23 05:06:33;;;;;;;5.73;4.00;;;16.90;99.90;;;;;;4975210;28;21005;-63
2022/08/23 05:09:01;;;;;;;4.63;4.10;;;16.90;99.90;;;;;;4975350;28;20455;-63
2022/08/23 05:11:28;;;;;;;4.57;4.27;;;16.90;99.90;;;;;;4975179;28;20807;-63
2022/08/23 05:13:56;;;;;;;3.97;3.50;;;16.90;99.90;;;;;;4975148;28;20458;-63
2022/08/23 05:16:24;;;;;;;4.33;3.67;;;16.90;99.90;;;;;;4975394;28;20459;-63
2022/08/23 05:18:51;;;;;;;3.57;3.37;;;16.90;99.90;;;;;;4975480;28;20605;-63
2022/08/23 05:21:20;;;;;;;3.80;3.50;;;16.90;99.90;;;;;;4975398;28;20486;-63
2022/08/23 05:23:48;;;;;;;5.57;4.10;;;17.00;99.90;;;;;;4978414;28;20463;-63
2022/08/23 05:26:17;;;;;;;5.37;3.97;;;16.90;99.90;;;;;;4987444;28;20458;-63
2022/08/23 05:28:44;;;;;;;4.10;3.80;;;17.00;99.90;;;;;;4987642;28;20458;-63
2022/08/23 05:31:15;;;;;;;4.20;3.93;;;17.00;99.90;;;;;;4980531;28;20466;-63
2022/08/23 05:33:42;;;;;;;8.87;4.53;;;17.00;99.90;;;;;;4975359;28;20459;-63
2022/08/23 05:36:11;;;;;;;4.10;3.80;;;17.10;99.90;;;;;;4975061;28;20454;-62
2022/08/23 05:38:39;;;;;;;6.50;4.50;;;17.20;99.90;;;;;;4975348;28;20458;-63
2022/08/23 05:41:06;;;;;;;4.40;4.00;;;17.30;99.90;;;;;;4974738;28;20519;-63
2022/08/23 05:43:34;;;;;;;4.70;4.40;;;17.40;99.90;;;;;;4975885;28;20859;-63
2022/08/23 05:46:03;;;;;;;4.37;3.97;;;17.60;99.90;;;;;;4997739;28;20450;-63
2022/08/23 05:48:30;;;;;;;4.90;4.40;;;17.90;99.90;;;;;;4994898;28;20459;-64
2022/08/23 05:50:58;;;;;;;5.20;4.90;;;18.20;99.90;;;;;;4984992;28;20498;-63
2022/08/23 05:53:25;;;;;;;6.27;4.70;;;18.40;99.90;;;;;;4975322;28;20458;-63
2022/08/23 05:55:52;;;;;;;5.00;4.60;;;18.60;99.90;;;;;;4974872;28;20459;-63
2022/08/23 05:58:19;;;;;;;5.60;4.90;;;18.70;99.90;;;;;;4975005;28;20443;-62
2022/08/23 06:00:47;;;;;;;11.93;5.00;;;18.80;99.90;;;;;;4974585;28;20482;-63
2022/08/23 06:03:13;;;;;;;5.70;4.50;;;18.80;99.90;;;;;;4974735;28;20445;-63
2022/08/23 06:05:41;;;;;;;4.70;4.30;;;19.00;99.90;;;;;;4974506;28;20827;-63
2022/08/23 06:08:08;;;;;;;5.03;4.63;;;19.10;99.90;;;;;;4974933;28;20497;-63
2022/08/23 06:10:36;;;;;;;4.53;4.13;;;19.20;99.90;;;;;;4974647;28;21000;-63
2022/08/23 06:13:03;;;;;;;4.90;4.47;;;19.30;99.90;;;;;;4975955;28;20455;-64
2022/08/23 06:15:31;;;;;;;5.60;3.93;;;19.40;99.90;;;;;;4975529;28;20489;-64
2022/08/23 06:17:59;;;;;;;4.53;4.20;;;19.50;99.90;;;;;;4974734;28;20560;-64
2022/08/23 06:20:26;;;;;;;5.23;4.30;;;19.60;99.90;;;;;;4974609;28;20482;-64
2022/08/23 06:22:53;;;;;;;4.47;4.07;;;19.80;99.90;;;;;;4974921;28;20451;-64
2022/08/23 06:25:19;;;;;;;9.23;4.60;;;19.90;99.90;;;;;;4974894;28;20443;-63
2022/08/23 06:27:46;;;;;;;4.87;4.00;;;20.20;99.90;;;;;;4974802;28;20458;-63
2022/08/23 06:30:13;;;;;;;4.40;4.10;;;20.40;99.90;;;;;;4974735;28;20458;-63
2022/08/23 06:32:40;;;;;;;4.33;3.93;;;20.70;99.90;;;;;;4974706;28;20481;-63
2022/08/23 06:35:09;;;;;;;3.83;3.57;;;21.10;99.90;;;;;;4974877;28;20505;-64
2022/08/23 06:37:36;;;;;;;6.07;3.70;;;21.70;99.90;;;;;;4974685;28;20455;-63
2022/08/23 06:40:03;;;;;;;6.50;4.50;;;22.30;99.90;;;;;;4974317;28;20959;-64
2022/08/23 06:42:30;;;;;;;3.73;3.43;;;22.90;99.90;;;;;;4974508;28;20478;-64
2022/08/23 06:44:57;;;;;;;4.50;3.70;;;23.60;99.90;;;;;;4974906;28;20535;-63
2022/08/23 06:47:24;;;;;;;5.80;3.40;;;24.30;98.50;;;;;;4974520;28;20510;-64
2022/08/23 06:49:51;;;;;;;3.90;3.50;;;24.90;96.40;;;;;;4974474;28;20454;-64
2022/08/23 06:52:19;;;;;;;4.83;3.43;;;25.50;93.60;;;;;;4974479;28;20511;-64
2022/08/23 06:54:46;;;;;;;3.23;2.93;;;26.10;91.30;;;;;;4978083;28;20469;-64
2022/08/23 06:57:13;;;;;;;4.23;2.93;;;26.40;86.00;;;;;;4977471;28;20965;-64
2022/08/23 06:59:39;;;;;;;5.63;3.67;;;26.80;84.60;;;;;;4978217;28;20856;-63
2022/08/23 07:02:08;;;;;;;3.70;3.30;;;27.20;82.60;;;;;;4977637;28;20489;-64
2022/08/23 07:04:38;;;;;;;4.27;3.87;;;27.70;80.90;;;;;;4977752;28;20466;-64
2022/08/23 07:07:05;;;;;;;3.30;3.10;;;28.00;79.10;;;;;;4977789;28;20537;-64
2022/08/23 07:09:33;;;;;;;3.70;3.30;;;28.40;74.50;;;;;;4977713;28;20462;-64
2022/08/23 07:12:00;;;;;;;3.33;3.07;;;28.80;73.20;;;;;;4977388;28;20479;-64
2022/08/23 07:14:28;;;;;;;5.40;2.90;;;28.90;70.50;;;;;;4977665;28;20458;-64
2022/08/23 07:16:56;;;;;;;3.50;3.00;;;29.10;70.30;;;;;;4977565;28;20462;-63
2022/08/23 07:19:26;;;;;;;3.73;2.90;;;29.10;69.10;;;;;;4977699;28;20535;-64
2022/08/23 07:21:53;;;;;;;6.60;3.63;;;29.10;68.40;;;;;;4977471;28;20482;-64
2022/08/23 07:24:21;;;;;;;7.03;3.30;;;29.20;67.90;;;;;;4977671;28;20462;-63
2022/08/23 07:26:50;;;;;;;3.63;3.30;;;29.40;67.50;;;;;;4977537;28;20819;-63
2022/08/23 07:29:18;;;;;;;7.70;3.20;;;29.80;66.70;;;;;;4977541;28;20494;-63
2022/08/23 07:31:47;;;;;;;3.93;3.57;;;30.00;65.80;;;;;;4977474;28;20475;-64
2022/08/23 07:34:14;;;;;;;3.97;2.90;;;29.90;65.90;;;;;;4977157;28;20972;-64
2022/08/23 07:36:43;;;;;;;5.90;3.53;;;30.10;64.10;;;;;;4977425;28;20455;-64
2022/08/23 07:39:11;;;;;;;4.87;3.23;;;30.40;63.20;;;;;;4977413;28;20463;-63
2022/08/23 07:41:38;;;;;;;4.67;3.90;;;30.70;62.10;;;;;;4977155;28;20483;-64
2022/08/23 07:44:09;;;;;;;6.40;3.17;;;31.10;61.90;;;;;;4978835;28;20450;-64
2022/08/23 07:46:38;;;;;;;5.10;3.53;;;31.60;60.50;;;;;;4990748;28;20446;-65
2022/08/23 07:49:05;;;;;;;4.20;3.43;;;31.90;59.50;;;;;;4997187;28;20446;-63
2022/08/23 07:51:34;;;;;;;6.20;3.50;;;32.40;58.90;;;;;;4996263;28;20462;-64
2022/08/23 07:54:02;;;;;;;4.20;3.30;;;32.60;57.20;;;;;;4980714;28;20458;-64
2022/08/23 07:56:28;;;;;;;4.90;3.17;;;32.90;57.30;;;;;;4976482;28;20929;-64
2022/08/23 07:58:55;;;;;;;3.73;3.43;;;33.10;56.70;;;;;;4976590;28;20509;-65
2022/08/23 08:01:27;;;;;;;2.67;2.47;;;33.40;55.10;;;;;;4976300;28;20572;-65
2022/08/23 08:03:56;;;;;;;5.23;2.80;;;33.50;55.00;;;;;;4976635;28;20515;-64
2022/08/23 08:06:26;;;;;;;3.03;2.77;;;33.70;54.90;;;;;;4975979;28;20828;-64
2022/08/23 08:08:53;;;;;;;3.13;2.67;;;34.00;53.20;;;;;;4976480;28;20466;-65
2022/08/23 08:11:23;;;;;;;3.70;3.30;;;34.20;53.20;;;;;;4976360;28;20470;-65
2022/08/23 08:13:51;;;;;;;5.23;3.40;;;34.40;52.60;;;;;;4976552;28;20530;-64
2022/08/23 08:16:27;;;;;;;3.30;3.00;;;34.60;51.80;;;;;;4976274;28;20454;-64
2022/08/23 08:18:55;;;;;;;5.23;3.20;;;34.30;52.20;;;;;;4976699;28;20507;-63
2022/08/23 08:21:22;;;;;;;4.67;3.40;;;34.20;53.40;;;;;;4976245;28;20486;-65
2022/08/23 08:23:49;;;;;;;3.47;3.13;;;34.70;51.80;;;;;;4976402;28;20454;-64
2022/08/23 08:26:16;;;;;;;3.10;2.80;;;35.00;50.70;;;;;;4976236;28;20500;-64
2022/08/23 08:28:45;;;;;;;3.77;2.90;;;35.20;49.70;;;;;;4976340;28;20454;-65
2022/08/23 08:31:12;;;;;;;5.00;2.93;;;35.60;50.00;;;;;;4976179;28;20470;-64
2022/08/23 08:33:40;;;;;;;5.53;2.90;;;35.70;50.50;;;;;;4976452;28;20492;-63
2022/08/23 08:36:08;;;;;;;5.70;3.40;;;35.80;50.10;;;;;;4976523;28;20466;-64
2022/08/23 08:38:39;;;;;;;4.27;2.97;;;36.00;48.80;;;;;;4976620;28;20438;-64
2022/08/23 08:41:11;;;;;;;6.30;3.03;;;36.30;47.90;;;;;;4975845;28;20517;-63
2022/08/23 08:43:50;;;;;;;3.20;2.90;;;36.60;47.60;;;;;;4975952;28;20450;-64
2022/08/23 08:46:23;;;;;;;3.07;2.70;;;36.70;46.50;;;;;;4975706;28;20839;-64
2022/08/23 08:48:56;;;;;;;4.57;3.30;;;37.10;46.60;;;;;;4975952;28;20877;-64
2022/08/23 08:51:36;;;;;;;4.80;2.97;;;37.20;45.90;;;;;;4976260;28;20470;-64
2022/08/23 08:54:08;;;;;;;3.23;2.70;;;37.30;45.70;;;;;;4976758;28;20449;-65
2022/08/23 08:56:38;;;;;;;4.70;3.07;;;37.50;45.90;;;;;;4975836;28;20446;-64
2022/08/23 08:59:07;;;;;;;5.07;2.90;;;37.40;44.20;;;;;;4975396;28;20446;-64
2022/08/23 09:01:36;;;;;;;2.87;2.77;;;37.40;45.90;;;;;;4975329;28;20510;-65
2022/08/23 09:04:06;;;;;;;3.10;2.77;;;37.70;43.50;;;;;;4975762;28;20439;-65
2022/08/23 09:06:43;;;;;;;3.20;2.73;;;38.00;44.10;;;;;;4976161;28;20454;-64
2022/08/23 09:09:22;;;;;;;3.03;2.73;;;38.00;42.80;;;;;;4975345;28;20936;-64
2022/08/23 09:11:57;;;;;;;3.10;2.90;;;38.20;42.40;;;;;;4975500;28;20470;-64
2022/08/23 09:14:52;;;;;;;2.90;2.70;;;38.20;43.00;;;;;;4975578;28;20438;-65
2022/08/23 09:17:25;;;;;;;6.27;2.70;;;38.10;42.20;;;;;;4974480;28;20533;-64
2022/08/23 09:19:57;;;;;;;5.37;2.73;;;38.30;41.10;;;;;;4975415;28;20434;-65
2022/08/23 09:22:32;;;;;;;2.90;2.70;;;38.30;41.10;;;;;;4975306;28;20478;-65
2022/08/23 09:24:59;;;;;;;2.77;2.37;;;38.30;40.40;;;;;;4975542;28;20445;-64
2022/08/23 09:27:26;;;;;;;3.63;2.42;;;38.10;42.30;;;;;;4975918;28;20522;-64
2022/08/23 09:29:56;;;;;;;4.10;2.53;;;37.50;42.70;;;;;;4994870;28;20199;-64
2022/08/23 09:32:29;;;;;;;3.27;2.23;;;37.70;42.40;;;;;;4994202;28;20447;-65
2022/08/23 09:35:11;;;;;;;2.10;2.00;;;37.90;38.70;;;;;;4994256;28;20441;-65
2022/08/23 09:37:55;;;;;;;8.27;2.23;;;38.20;39.30;;;;;;4982219;28;20466;-65
2022/08/23 09:40:32;;;;;;;4.53;2.23;;;38.60;38.90;;;;;;4975525;28;20446;-65
2022/08/23 09:43:11;;;;;;;2.17;1.73;;;38.90;40.10;;;;;;4975741;28;20461;-63
2022/08/23 09:45:42;;;;;;;2.00;1.90;;;39.30;37.50;;;;;;4975528;28;20441;-65
2022/08/23 09:48:14;;;;;;;1.87;1.77;;;39.20;37.60;;;;;;4975301;28;20446;-66
2022/08/23 09:50:49;;;;;;;2.90;2.20;;;39.30;37.20;;;;;;4975268;28;20532;-64
2022/08/23 09:53:25;;;;;;;2.17;1.90;;;39.60;38.20;;;;;;4975578;28;20433;-64
2022/08/23 09:55:55;;;;;;;5.40;2.60;;;39.50;39.80;;;;;;4995496;28;20183;-64
2022/08/23 09:58:30;;;;;;;2.90;2.13;;;39.70;38.60;;;;;;4994636;28;20246;-64
2022/08/23 10:01:10;;;;;;;3.13;1.90;;;39.90;36.90;;;;;;4985461;28;20505;-64
2022/08/23 10:03:37;;;;;;;2.17;2.07;;;40.00;36.40;;;;;;4976051;28;20828;-65
2022/08/23 10:06:07;;;;;;;2.63;2.03;;;40.40;37.80;;;;;;4974630;28;20670;-64
2022/08/23 10:08:36;;;;;;;2.53;2.30;;;40.40;37.40;;;;;;4974575;28;20768;-65
2022/08/23 10:11:12;;;;;;;2.37;2.17;;;40.50;35.00;;;;;;4974838;28;20246;-64
2022/08/23 10:13:41;;;;;;;2.70;2.50;;;40.50;36.00;;;;;;4974981;28;20178;-64
2022/08/23 10:16:29;;;;;;;2.60;2.40;;;40.90;36.90;;;;;;4975165;28;20199;-64
2022/08/23 10:19:03;;;;;;;2.63;2.30;;;40.40;35.40;;;;;;4976220;28;20642;-65
2022/08/23 10:21:39;;;;;;;2.57;1.90;;;40.50;34.50;;;;;;4974920;28;20225;-65
2022/08/23 10:24:18;;;;;;;2.27;2.17;;;41.00;34.40;;;;;;4975561;28;20183;-65
2022/08/23 10:26:52;;;;;;;5.20;2.70;;;40.90;35.20;;;;;;4975119;28;20198;-64
2022/08/23 10:29:39;;;;;;;2.20;1.93;;;40.80;34.60;;;;;;4978345;28;20182;-64
2022/08/23 10:32:20;;;;;;;3.13;1.77;;;40.90;34.30;;;;;;4978190;28;20682;-64
2022/08/23 10:35:00;;;;;;;2.33;2.00;;;40.30;34.60;;;;;;4978589;28;20596;-65
2022/08/23 10:37:42;;;;;;;3.80;1.80;;;39.80;35.00;;;;;;4978683;28;20568;-64
2022/08/23 10:40:19;;;;;;;2.43;2.10;;;40.00;34.40;;;;;;4978916;28;20442;-64
2022/08/23 10:42:55;;;;;;;2.47;2.10;;;40.10;33.60;;;;;;4978565;28;20206;-64
2022/08/23 10:45:35;;;;;;;2.00;1.90;;;40.10;35.10;;;;;;4978429;28;20437;-65
2022/08/23 10:48:26;;;;;;;2.00;1.57;;;40.20;35.40;;;;;;4978361;28;20547;-64
2022/08/23 10:50:57;;;;;;;2.10;2.00;;;40.50;34.30;;;;;;4979001;28;20219;-64
2022/08/23 10:53:37;;;;;;;2.37;2.03;;;40.50;33.00;;;;;;4979414;28;20270;-63
2022/08/23 10:56:06;;;;;;;4.10;1.60;;;40.20;34.00;;;;;;4978281;28;20179;-65
2022/08/23 10:58:40;;;;;;;2.60;1.93;;;40.10;33.60;;;;;;4978018;28;20206;-65
2022/08/23 11:01:09;;;;;;;2.30;2.20;;;40.00;34.70;;;;;;4977641;28;20713;-63
2022/08/23 11:03:42;;;;;;;3.60;2.20;;;40.00;34.80;;;;;;4980077;28;20586;-64
2022/08/23 11:06:29;;;;;;;2.30;2.10;;;39.90;34.00;;;;;;4977627;28;20631;-64
2022/08/23 11:09:03;;;;;;;2.50;2.30;;;40.10;34.10;;;;;;4977813;28;20446;-64
2022/08/23 11:11:46;;;;;;;2.33;2.13;;;39.90;33.90;;;;;;4977874;28;20473;-64
2022/08/23 11:14:36;;;;;;;2.27;2.17;;;39.30;34.60;;;;;;4978045;28;20442;-64
2022/08/23 11:17:06;;;;;;;3.77;1.90;;;38.90;34.40;;;;;;4977973;28;20438;-64
2022/08/23 11:19:48;;;;;;;2.43;2.03;;;37.90;35.30;;;;;;4977797;28;20439;-64
2022/08/23 11:22:17;;;;;;;2.07;1.87;;;37.60;36.00;;;;;;4977242;28;20980;-64
2022/08/23 11:24:54;;;;;;;3.03;2.40;;;37.40;37.50;;;;;;4977386;28;20980;-64
2022/08/23 11:27:31;;;;;;;2.03;1.80;;;37.20;35.90;;;;;;4977614;28;20778;-64
2022/08/23 11:29:57;;;;;;;2.53;1.73;;;37.10;35.80;;;;;;4977564;28;20448;-65
2022/08/23 11:32:41;;;;;;;2.23;2.03;;;36.90;35.20;;;;;;4977375;28;20478;-64
2022/08/23 11:35:34;;;;;;;2.47;2.30;;;36.60;36.60;;;;;;4977344;28;20449;-65
2022/08/23 11:38:03;;;;;;;2.27;2.07;;;36.00;36.50;;;;;;4977190;28;20944;-64
2022/08/23 11:40:58;;;;;;;3.77;2.37;;;35.60;37.90;;;;;;4976405;28;20450;-65
2022/08/23 11:43:32;;;;;;;2.47;2.27;;;35.40;37.50;;;;;;4977278;28;21048;-65
2022/08/23 11:46:30;;;;;;;2.70;2.37;;;35.10;37.90;;;;;;4977617;28;20446;-64
2022/08/23 11:49:20;;;;;;;3.10;2.07;;;34.70;38.20;;;;;;4975487;28;20513;-64
2022/08/23 11:51:55;;;;;;;2.43;2.20;;;34.40;39.70;;;;;;4977873;28;20489;-65
2022/08/23 11:54:38;;;;;;;2.50;2.40;;;34.30;38.70;;;;;;4977392;28;20799;-64
2022/08/23 11:57:29;;;;;;;3.80;2.60;;;34.10;40.80;;;;;;4977375;28;20867;-64
2022/08/23 12:00:07;;;;;;;3.30;2.57;;;33.90;39.40;;;;;;4974888;28;20478;-65
2022/08/23 12:02:47;;;;;;;2.10;1.90;;;33.80;40.30;;;;;;4985121;28;20482;-65
2022/08/23 12:05:31;;;;;;;2.43;2.17;;;33.80;40.40;;;;;;4996662;28;20429;-65
2022/08/23 12:08:33;;;;;;;2.03;1.93;;;33.80;42.50;;;;;;4997140;28;20434;-65
2022/08/23 12:11:04;;;;;;;2.50;2.40;;;33.70;39.40;;;;;;4977494;28;20469;-65
2022/08/23 12:13:49;;;;;;;2.50;2.30;;;33.60;40.30;;;;;;4976653;28;20470;-65
2022/08/23 12:16:38;;;;;;;2.47;2.30;;;33.60;42.60;;;;;;4977106;28;20435;-65
2022/08/23 12:19:10;;;;;;;7.63;2.30;;;33.70;42.40;;;;;;4976705;28;20807;-66
2022/08/23 12:21:47;;;;;;;4.10;2.20;;;33.60;39.70;;;;;;4976769;28;20584;-65
2022/08/23 12:24:22;;;;;;;5.90;2.67;;;33.50;41.10;;;;;;4976882;28;20442;-64
2022/08/23 12:26:57;;;;;;;2.50;2.40;;;33.50;41.80;;;;;;4977698;28;20438;-65
2022/08/23 12:29:32;;;;;;;4.70;2.40;;;33.50;42.50;;;;;;4976390;28;20886;-66
2022/08/23 12:32:07;;;;;;;5.33;2.27;;;33.20;40.40;;;;;;4976301;28;20477;-65
2022/08/23 12:34:42;;;;;;;3.43;2.60;;;33.30;41.10;;;;;;4976611;28;20921;-64
2022/08/23 12:37:19;;;;;;;2.30;2.10;;;33.10;42.10;;;;;;4996206;28;20502;-64
2022/08/23 12:39:51;;;;;;;2.90;2.50;;;32.70;42.20;;;;;;4996439;28;20434;-64
2022/08/23 12:42:25;;;;;;;2.87;2.67;;;32.70;42.50;;;;;;4995737;28;20478;-64
2022/08/23 12:45:00;;;;;;;4.03;2.87;;;32.90;43.20;;;;;;4994802;28;20435;-64
2022/08/23 12:47:27;;;;;;;4.07;2.40;;;33.10;42.40;;;;;;4990796;28;20439;-66
2022/08/23 12:49:57;;;;;;;2.90;2.50;;;33.40;42.30;;;;;;4977163;28;20465;-66
2022/08/23 12:52:28;;;;;;;2.80;2.60;;;33.60;41.70;;;;;;4976219;28;20870;-66
2022/08/23 12:54:56;;;;;;;2.40;2.27;;;33.60;41.70;;;;;;4976388;28;20443;-64
2022/08/23 12:57:35;;;;;;;2.20;2.03;;;33.70;41.10;;;;;;4976054;28;20462;-64
2022/08/23 13:00:16;;;;;;;2.23;2.13;;;33.60;40.90;;;;;;4976364;28;20481;-63
2022/08/23 13:02:47;;;;;;;1.87;1.70;;;33.60;42.70;;;;;;4976813;28;20867;-64
2022/08/23 13:05:21;;;;;;;1.80;1.70;;;33.60;41.90;;;;;;4976286;28;20450;-64
2022/08/23 13:07:49;;;;;;;2.90;2.10;;;33.60;41.30;;;;;;4976078;28;20435;-63
2022/08/23 13:10:17;;;;;;;2.50;2.13;;;33.70;41.20;;;;;;4976249;28;20493;-65
2022/08/23 13:12:44;;;;;;;2.53;2.33;;;33.80;40.90;;;;;;4976397;28;20450;-66
2022/08/23 13:15:11;;;;;;;3.53;2.60;;;33.90;41.00;;;;;;4975928;28;20454;-65
2022/08/23 13:17:39;;;;;;;3.17;2.80;;;33.90;41.70;;;;;;4976338;28;20461;-64
2022/08/23 13:20:27;;;;;;;3.20;2.60;;;33.90;42.50;;;;;;4976217;28;20458;-67
2022/08/23 13:23:04;;;;;;;2.50;2.30;;;33.90;40.30;;;;;;4971410;28;20466;-66
2022/08/23 13:25:35;;;;;;;2.77;2.47;;;34.00;41.80;;;;;;4976137;28;20442;-67
2022/08/23 13:28:05;;;;;;;9.27;3.53;;;34.00;40.90;;;;;;4975654;28;20853;-66
2022/08/23 13:30:33;;;;;;;3.37;3.07;;;33.90;41.40;;;;;;4975498;28;20458;-65
2022/08/23 13:33:21;;;;;;;2.57;2.37;;;33.80;42.00;;;;;;4975688;28;20458;-66
2022/08/23 13:35:49;;;;;;;2.60;2.20;;;33.80;40.00;;;;;;4975674;28;20458;-65
2022/08/23 13:38:22;;;;;;;2.67;2.47;;;33.90;41.70;;;;;;4975434;28;20462;-65
2022/08/23 13:40:57;;;;;;;4.00;2.43;;;34.00;40.40;;;;;;4975674;28;20485;-64
2022/08/23 13:43:29;;;;;;;2.60;2.40;;;34.00;41.20;;;;;;4975644;28;20467;-65
2022/08/23 13:46:00;;;;;;;3.60;2.40;;;33.90;40.20;;;;;;4975844;28;20475;-65
2022/08/23 13:48:30;;;;;;;2.60;2.10;;;33.80;40.80;;;;;;4975718;28;20449;-64
2022/08/23 13:51:25;;;;;;;4.03;2.60;;;33.60;40.10;;;;;;4975717;28;20524;-64
2022/08/23 13:53:55;;;;;;;2.80;2.60;;;33.50;41.30;;;;;;4978897;28;20438;-64
2022/08/23 13:56:22;;;;;;;2.23;2.03;;;33.50;42.30;;;;;;4990989;28;20450;-64
2022/08/23 13:58:56;;;;;;;2.50;2.30;;;33.50;41.00;;;;;;4989493;28;20457;-65
2022/08/23 14:01:23;;;;;;;2.50;2.40;;;33.50;41.00;;;;;;4976441;28;20482;-65
2022/08/23 14:03:51;;;;;;;4.10;2.50;;;33.40;40.10;;;;;;4978538;28;20478;-65
2022/08/23 14:06:17;;;;;;;3.57;2.37;;;33.40;41.40;;;;;;4980184;28;20465;-65
2022/08/23 14:08:44;;;;;;;2.40;2.20;;;33.40;43.10;;;;;;4980686;28;20458;-65
2022/08/23 14:11:14;;;;;;;5.63;2.77;;;33.40;41.50;;;;;;4980624;28;20994;-65
2022/08/23 14:13:44;;;;;;;2.40;2.20;;;33.40;40.80;;;;;;4995588;28;20442;-64
2022/08/23 14:16:16;;;;;;;2.30;2.20;;;33.40;41.70;;;;;;4996077;28;20454;-64
2022/08/23 14:18:43;;;;;;;2.40;2.20;;;33.40;40.90;;;;;;4994025;28;20446;-65
2022/08/23 14:21:11;;;;;;;2.30;2.20;;;33.50;41.30;;;;;;4995953;28;20471;-65
2022/08/23 14:23:38;;;;;;;7.27;2.07;;;33.50;40.10;;;;;;4994495;28;20542;-63
2022/08/23 14:26:05;;;;;;;2.97;2.20;;;33.60;40.80;;;;;;4991489;28;20454;-65
2022/08/23 14:28:33;;;;;;;2.23;2.10;;;33.60;40.00;;;;;;4983076;28;20442;-65
2022/08/23 14:31:00;;;;;;;2.13;2.03;;;33.60;40.00;;;;;;4979182;28;20485;-64
2022/08/23 14:33:27;;;;;;;3.63;2.40;;;33.50;41.80;;;;;;4979118;28;20878;-66
2022/08/23 14:35:54;;;;;;;3.50;2.57;;;33.60;41.70;;;;;;4978746;28;20461;-66
2022/08/23 14:38:21;;;;;;;5.97;2.57;;;33.60;42.10;;;;;;4978830;28;20874;-65
2022/08/23 14:40:52;;;;;;;2.70;2.33;;;33.50;42.40;;;;;;4978579;28;20533;-66
2022/08/23 14:43:20;;;;;;;2.20;2.00;;;33.60;41.40;;;;;;4980472;28;20512;-65
2022/08/23 14:45:49;;;;;;;2.27;2.17;;;33.60;42.20;;;;;;4978486;28;20439;-65
2022/08/23 14:48:16;;;;;;;2.60;2.37;;;33.60;43.00;;;;;;4978020;28;21036;-65
2022/08/23 14:50:43;;;;;;;4.60;2.40;;;33.40;42.10;;;;;;4978503;28;20474;-66
2022/08/23 14:53:11;;;;;;;3.70;2.50;;;33.40;42.30;;;;;;4979088;28;20461;-65
2022/08/23 14:55:38;;;;;;;3.50;2.60;;;33.40;42.10;;;;;;4979053;28;20457;-65
2022/08/23 14:58:05;;;;;;;3.40;2.37;;;33.40;42.80;;;;;;4979262;28;20458;-65
2022/08/23 15:00:32;;;;;;;2.10;2.00;;;33.40;42.60;;;;;;4978612;28;20473;-65
2022/08/23 15:03:02;;;;;;;5.40;2.40;;;33.30;43.10;;;;;;4978850;28;20961;-65
2022/08/23 15:05:29;;;;;;;2.50;2.23;;;33.20;41.90;;;;;;4978210;28;20461;-65
2022/08/23 15:07:56;;;;;;;2.43;2.10;;;33.20;42.80;;;;;;4978164;28;20451;-67
2022/08/23 15:10:23;;;;;;;3.20;2.00;;;33.10;43.00;;;;;;4978252;28;20530;-67
2022/08/23 15:12:49;;;;;;;2.20;1.93;;;32.90;42.00;;;;;;4978108;28;20579;-68
2022/08/23 15:15:19;;;;;;;2.60;2.17;;;32.90;41.90;;;;;;4978225;28;20482;-68
2022/08/23 15:17:51;;;;;;;3.23;2.60;;;32.90;43.00;;;;;;4978049;28;20921;-68
2022/08/23 15:20:20;;;;;;;3.80;2.37;;;32.90;43.50;;;;;;4978867;28;20439;-67
2022/08/23 15:22:47;;;;;;;2.60;2.40;;;33.00;43.70;;;;;;4979450;28;20501;-68
2022/08/23 15:25:15;;;;;;;4.70;2.40;;;33.00;42.60;;;;;;4978470;28;20462;-67
2022/08/23 15:27:43;;;;;;;5.20;3.03;;;33.10;44.10;;;;;;4978007;28;20458;-68
2022/08/23 15:30:11;;;;;;;5.40;2.50;;;33.20;41.70;;;;;;4978276;28;20454;-67
2022/08/23 15:32:38;;;;;;;2.20;2.10;;;33.30;41.50;;;;;;4977599;28;21032;-68
2022/08/23 15:35:06;;;;;;;5.00;2.20;;;33.30;41.40;;;;;;4978002;28;20458;-67
2022/08/23 15:37:34;;;;;;;2.73;2.30;;;33.20;40.90;;;;;;4977917;28;20458;-67
2022/08/23 15:40:01;;;;;;;5.63;2.47;;;33.20;41.50;;;;;;4980634;28;20478;-68
2022/08/23 15:42:28;;;;;;;2.53;2.43;;;33.10;42.30;;;;;;4997040;28;20459;-68
2022/08/23 15:44:55;;;;;;;3.93;2.40;;;33.10;42.10;;;;;;4996262;28;20482;-68
2022/08/23 15:47:26;;;;;;;4.80;2.40;;;32.90;42.00;;;;;;4981205;28;20450;-68
2022/08/23 15:49:52;;;;;;;2.10;1.90;;;32.80;43.20;;;;;;4977581;28;20783;-66
2022/08/23 15:52:20;;;;;;;2.77;2.20;;;32.80;43.10;;;;;;4977130;28;20988;-68
2022/08/23 15:54:48;;;;;;;3.20;2.67;;;32.70;42.50;;;;;;4977155;28;20553;-69
2022/08/23 15:57:16;;;;;;;3.87;2.07;;;32.70;43.30;;;;;;4977180;28;20922;-68
2022/08/23 15:59:43;;;;;;;2.30;2.20;;;32.70;42.60;;;;;;4977548;28;20442;-68
2022/08/23 16:02:10;;;;;;;2.93;2.20;;;32.50;42.40;;;;;;4976729;28;20891;-68
2022/08/23 16:04:37;;;;;;;5.87;2.10;;;32.40;42.50;;;;;;4977004;28;20479;-68
2022/08/23 16:07:04;;;;;;;3.30;2.13;;;32.30;42.10;;;;;;4976770;28;20950;-67
2022/08/23 16:09:32;;;;;;;4.70;2.53;;;32.20;41.80;;;;;;4977054;28;20455;-68
2022/08/23 16:12:01;;;;;;;2.30;2.20;;;32.10;42.90;;;;;;4977170;28;20474;-68
2022/08/23 16:14:29;;;;;;;5.43;2.20;;;32.00;43.10;;;;;;4977330;28;20457;-67
2022/08/23 16:16:57;;;;;;;4.07;2.40;;;31.90;43.70;;;;;;4977257;28;20458;-66
2022/08/23 16:19:24;;;;;;;2.30;2.10;;;31.80;43.10;;;;;;4977230;28;20466;-67
2022/08/23 16:21:52;;;;;;;2.63;2.43;;;31.60;43.90;;;;;;4976565;28;20525;-67
2022/08/23 16:24:19;;;;;;;5.90;3.30;;;31.40;43.90;;;;;;4976223;28;21371;-65
2022/08/23 16:26:46;;;;;;;2.50;2.30;;;31.30;43.60;;;;;;4976752;28;20468;-66
2022/08/23 16:29:17;;;;;;;6.30;3.03;;;31.30;43.90;;;;;;4977144;28;20462;-66
2022/08/23 16:31:45;;;;;;;3.23;2.27;;;31.30;44.20;;;;;;4977133;28;20474;-65
2022/08/23 16:34:14;;;;;;;3.07;2.87;;;31.30;43.80;;;;;;4977835;28;20439;-67
2022/08/23 16:36:44;;;;;;;2.83;2.37;;;31.20;43.90;;;;;;4977200;28;20945;-65
2022/08/23 16:39:15;;;;;;;6.10;2.40;;;31.20;44.10;;;;;;4977069;28;20455;-65
2022/08/23 16:41:41;;;;;;;6.90;2.43;;;31.20;44.70;;;;;;4976709;28;20481;-64
2022/08/23 16:44:08;;;;;;;3.27;2.13;;;31.00;45.50;;;;;;4976859;28;21005;-64
2022/08/23 16:46:38;;;;;;;3.80;2.23;;;31.00;44.70;;;;;;4977272;28;20947;-64
2022/08/23 16:49:05;;;;;;;3.03;2.80;;;30.90;45.90;;;;;;4977004;28;20497;-65
2022/08/23 16:51:32;;;;;;;3.07;2.23;;;30.90;44.70;;;;;;4977287;28;20924;-66
2022/08/23 16:53:58;;;;;;;2.70;2.30;;;30.80;45.70;;;;;;4976527;28;20490;-65
2022/08/23 16:56:26;;;;;;;2.93;2.57;;;30.70;45.10;;;;;;4976743;28;20914;-65
2022/08/23 16:58:52;;;;;;;3.20;1.90;;;30.70;45.40;;;;;;4976217;28;20520;-67
2022/08/23 17:01:19;;;;;;;7.20;3.17;;;30.60;45.50;;;;;;4976529;28;20486;-67
2022/08/23 17:03:48;;;;;;;9.90;3.57;;;30.50;46.70;;;;;;4977276;28;20529;-64
2022/08/23 17:06:15;;;;;;;2.40;2.20;;;30.40;47.30;;;;;;4977069;28;20446;-67
2022/08/23 17:08:42;;;;;;;4.80;2.80;;;30.30;46.60;;;;;;4977444;28;20458;-66
2022/08/23 17:11:13;;;;;;;3.90;2.70;;;30.20;45.90;;;;;;4978263;28;20486;-65